Главная страница
METAR-TAF:

METAR-TAF

Аэропорты :

Басра (международный аэропорт)

Басра, Ирак

широта: 30-32-56N, долгота: 47-39-45E, высота над уровнем моря: 1 м

Текущие метеонаблюдения

Эта сводка был подготовлена 44 минут назад, в 21:00 UTC
Ветер 6 Узел от северо-западный
Температура 14°C
Влажность 72%
Давление 1021 hPa
Видимость 10 км и более
Нет облачности ниже 1500 м, и нет кучево-дождевой облачности

METAR: ORMM 212100Z 31006KT CAVOK 14/09 Q1021 NOSIG

Время: 00:44 (21:44 UTC)

Прогноз

Эта сводка был подготовлена 5 часа и 44 минут назад, в 16:00 UTC
Прогноз действительный с 21-го 18 UTC до 22-го 18 UTC
Ветер 12 Узел от северо-западный
Видимость 10 км и более
Нет облачности ниже 1500 м, и нет кучево-дождевой облачности
временами
С 21-го 22 UTC до 22-го 06 UTC
Ветер 2 Узел переменных направлений
Вероятность 40%
С 22-го 02 UTC до 22-го 05 UTC
Видимость: 5000 м
мгла,

TAF: ORMM 211600Z 2118/2218 32012KT CAVOK TEMPO 2122/2206 VRB02KT PROB40 2202/2205 5000 HZ NSC

Метеонаблюдения и прогнозы для более 4000 аэропортов (сводки METAR и TAF).

Имеющиеся станции представлены на карте желтыми и красными точками.

Чтобы увидеть название станции, наведите на нее мышь.

Затем щелкните, чтобы увидеть метеонаблюдения и метеопрогнозы.

Управление картой: чтобы увеличить масштаб, щелкните зеленые кнопки с черным крестиком; чтобы уменьшить масштаб, щелкните зеленую кнопку с тире; для просмотра соседних карт щелкайте зеленые стрелки.


METAR-TAF: